Time;durP1;ratioP1;P1;durP2;ratioP2;P2;SDS_P1;SDS_P2;PMS_P1;PMS_P2;Temp;Humidity;BMP_temperature;BMP_pressure;BME280_temperature;BME280_humidity;BME280_pressure;Samples;Min_cycle;Max_cycle;Signal;HPM_P1;HPM_P2
2022/05/01 00:00:59;;;;;;;4.17;1.93;;;;;;;14.82;64.51;99457.78;5052735;28;20692;-84
2022/05/01 00:03:34;;;;;;;3.30;2.13;;;;;;;14.87;64.24;99455.69;5051687;28;20694;-84
2022/05/01 00:06:04;;;;;;;7.17;3.07;;;;;;;14.82;63.81;99457.78;5051775;28;20604;-84
2022/05/01 00:08:31;;;;;;;6.37;2.50;;;;;;;14.85;63.70;99465.53;5053256;28;20215;-84
2022/05/01 00:10:57;;;;;;;10.23;2.33;;;;;;;14.83;63.89;99462.13;5052607;28;20170;-84
2022/05/01 00:13:24;;;;;;;5.77;2.50;;;;;;;14.80;64.00;99464.97;5052547;28;20206;-84
2022/05/01 00:15:50;;;;;;;2.60;1.50;;;;;;;14.75;64.59;99465.25;5052830;28;20200;-84
2022/05/01 00:18:16;;;;;;;3.50;1.60;;;;;;;14.74;64.29;99465.34;5052531;28;20174;-84
2022/05/01 00:20:42;;;;;;;4.17;1.90;;;;;;;14.71;63.88;99471.69;5052783;28;20684;-84
2022/05/01 00:23:08;;;;;;;3.80;1.97;;;;;;;14.65;63.72;99468.56;5052742;28;20166;-84
2022/05/01 00:25:34;;;;;;;3.07;1.60;;;;;;;14.65;63.62;99465.94;5051968;28;20167;-85
2022/05/01 00:27:59;;;;;;;3.70;2.03;;;;;;;14.64;63.34;99465.09;5052642;28;20175;-84
2022/05/01 00:30:26;;;;;;;2.90;2.03;;;;;;;14.51;63.95;99464.19;5051361;28;20263;-85
2022/05/01 00:38:24;;;;;;;2.73;1.30;;;;;;;14.58;64.38;99459.34;5052271;28;20173;-85
2022/05/01 00:40:50;;;;;;;4.50;1.93;;;;;;;14.53;64.86;99461.44;5052169;28;20638;-85
2022/05/01 00:43:15;;;;;;;6.20;1.60;;;;;;;14.49;65.08;99471.34;5051166;28;20275;-85
2022/05/01 00:45:41;;;;;;;2.70;1.60;;;;;;;14.49;65.97;99466.06;5052129;28;20201;-85
2022/05/01 00:48:07;;;;;;;3.40;1.40;;;;;;;14.52;66.21;99467.66;5052319;28;20205;-85
2022/05/01 00:50:33;;;;;;;4.40;1.47;;;;;;;14.52;66.08;99465.00;5052281;28;20163;-85
2022/05/01 00:52:58;;;;;;;4.33;2.03;;;;;;;14.47;65.73;99477.66;5052158;28;20201;-84
2022/05/01 00:55:24;;;;;;;4.17;1.83;;;;;;;14.38;65.13;99470.34;5051908;28;20194;-84
2022/05/01 00:57:51;;;;;;;3.90;1.77;;;;;;;14.39;65.11;99483.41;5051929;28;20256;-84
2022/05/01 01:00:18;;;;;;;5.87;2.40;;;;;;;14.36;64.92;99475.69;5050915;28;20183;-84
2022/05/01 01:02:47;;;;;;;2.63;1.37;;;;;;;14.42;64.47;99474.47;5051718;28;20726;-84
2022/05/01 01:05:13;;;;;;;2.97;1.57;;;;;;;14.43;63.94;99465.63;5050865;28;20188;-84
2022/05/01 01:07:39;;;;;;;3.50;1.50;;;;;;;14.43;64.14;99466.47;5050801;28;20170;-85
2022/05/01 01:10:06;;;;;;;2.90;1.50;;;;;;;14.36;64.51;99474.88;5051698;28;20178;-84
2022/05/01 01:15:15;;;;;;;3.73;2.27;;;;;;;14.20;64.30;99485.47;5051946;28;20631;-84
2022/05/01 01:17:42;;;;;;;3.00;1.40;;;;;;;14.27;64.22;99493.84;5050649;28;20268;-84
2022/05/01 01:20:08;;;;;;;5.50;2.57;;;;;;;14.20;64.07;99495.19;5051800;28;20177;-84
2022/05/01 01:22:33;;;;;;;5.00;2.30;;;;;;;14.11;64.56;99492.16;5051541;28;20178;-84
2022/05/01 01:24:59;;;;;;;5.73;2.33;;;;;;;14.10;64.19;99482.53;5051492;28;20181;-84
2022/05/01 01:27:25;;;;;;;3.30;1.50;;;;;;;14.14;64.00;99480.56;5050464;28;20239;-85
2022/05/01 01:32:37;;;;;;;2.83;1.30;;;;;;;14.12;64.68;99467.47;5051994;28;20196;-85
2022/05/01 01:35:05;;;;;;;3.00;1.67;;;;;;;14.14;65.13;99468.25;5051361;28;20173;-85
2022/05/01 01:37:34;;;;;;;3.60;2.10;;;;;;;14.08;65.59;99465.13;5049663;28;20238;-85
2022/05/01 01:40:00;;;;;;;3.77;1.87;;;;;;;14.00;65.76;99455.06;5051242;28;20170;-85
2022/05/01 01:42:29;;;;;;;3.43;1.37;;;;;;;14.02;65.55;99458.44;5051755;28;20239;-85
2022/05/01 01:44:56;;;;;;;4.67;1.63;;;;;;;13.98;66.15;99449.03;5051124;28;20189;-85
2022/05/01 01:47:22;;;;;;;4.03;1.70;;;;;;;13.95;67.21;99449.22;5051679;28;20213;-85
2022/05/01 01:49:47;;;;;;;7.33;1.80;;;;;;;13.90;67.42;99451.31;5051112;28;20202;-85
2022/05/01 01:52:13;;;;;;;4.90;1.97;;;;;;;13.95;67.75;99443.09;5050994;28;20550;-85
2022/05/01 01:54:38;;;;;;;3.80;1.50;;;;;;;14.00;67.96;99443.66;5050995;28;20699;-85
2022/05/01 01:57:05;;;;;;;4.10;1.50;;;;;;;14.03;67.67;99439.06;5049991;28;20573;-85
2022/05/01 01:59:30;;;;;;;3.43;1.70;;;;;;;14.05;67.62;99433.69;5050269;28;20611;-85
2022/05/01 02:01:55;;;;;;;4.17;2.00;;;;;;;14.00;67.83;99428.69;5049799;28;20181;-85
2022/05/01 02:04:21;;;;;;;2.90;1.53;;;;;;;14.05;68.25;99429.25;5050899;28;20584;-85
2022/05/01 02:06:46;;;;;;;4.33;1.63;;;;;;;13.99;67.95;99424.34;5049924;28;20174;-86
2022/05/01 02:09:13;;;;;;;3.50;2.03;;;;;;;13.84;68.43;99430.59;5051093;28;20168;-85
2022/05/01 02:11:38;;;;;;;5.03;2.00;;;;;;;13.81;68.67;99438.66;5050944;28;20224;-86
2022/05/01 02:14:05;;;;;;;3.97;1.97;;;;;;;13.75;68.90;99441.69;5050723;27;20257;-85
2022/05/01 02:16:31;;;;;;;3.67;2.13;;;;;;;13.79;68.52;99432.66;5049757;28;20173;-85
2022/05/01 02:18:56;;;;;;;6.87;2.60;;;;;;;13.79;68.62;99435.28;5049718;28;20641;-85
2022/05/01 02:21:34;;;;;;;3.97;2.20;;;;;;;13.78;68.15;99420.44;5049958;28;20611;-84
2022/05/01 02:23:59;;;;;;;4.80;2.23;;;;;;;13.82;68.35;99439.53;5049690;28;20176;-85
2022/05/01 02:26:25;;;;;;;4.07;2.03;;;;;;;13.84;68.16;99429.72;5050563;28;20188;-85
2022/05/01 02:28:50;;;;;;;6.17;2.77;;;;;;;13.85;68.25;99437.56;5050665;28;20720;-84
2022/05/01 02:31:16;;;;;;;3.27;2.07;;;;;;;13.86;67.88;99444.50;5050426;28;20261;-84
2022/05/01 02:33:43;;;;;;;3.27;2.03;;;;;;;13.86;67.18;99439.22;5050706;28;20193;-84
2022/05/01 02:36:09;;;;;;;3.97;2.13;;;;;;;13.84;67.25;99433.22;5050418;28;20317;-85
2022/05/01 02:38:35;;;;;;;4.57;2.03;;;;;;;13.77;67.38;99431.91;5050355;28;20635;-84
2022/05/01 02:41:02;;;;;;;4.67;2.50;;;;;;;13.75;66.80;99423.25;5050363;28;20257;-85
2022/05/01 02:43:28;;;;;;;3.73;2.10;;;;;;;13.71;66.82;99421.72;5050300;28;20166;-85
2022/05/01 02:45:53;;;;;;;3.37;1.83;;;;;;;13.71;66.58;99420.88;5049318;28;20189;-85
2022/05/01 02:48:19;;;;;;;5.20;1.87;;;;;;;13.69;66.39;99428.88;5049096;28;20178;-84
2022/05/01 02:50:44;;;;;;;3.97;2.00;;;;;;;13.73;66.46;99430.38;5050202;28;20170;-84
2022/05/01 02:53:10;;;;;;;5.43;2.40;;;;;;;13.67;65.85;99424.66;5049192;28;20699;-85
2022/05/01 02:55:35;;;;;;;5.43;2.03;;;;;;;13.64;65.84;99412.50;5050171;28;20181;-85
2022/05/01 02:58:02;;;;;;;4.07;2.13;;;;;;;13.62;66.39;99426.72;5049157;28;20181;-85
2022/05/01 03:00:27;;;;;;;3.20;1.60;;;;;;;13.63;66.12;99429.25;5050102;28;20638;-85
2022/05/01 03:02:55;;;;;;;6.73;2.17;;;;;;;13.68;66.29;99424.53;5049871;28;20218;-85
2022/05/01 03:05:21;;;;;;;3.87;1.73;;;;;;;13.67;66.04;99422.03;5050585;28;20623;-85
2022/05/01 03:07:48;;;;;;;4.27;2.20;;;;;;;13.64;65.96;99415.16;5049986;28;20247;-85
2022/05/01 03:10:14;;;;;;;8.13;1.60;;;;;;;13.54;66.07;99419.28;5049062;28;20635;-85
2022/05/01 03:12:39;;;;;;;4.93;1.60;;;;;;;13.45;66.63;99419.81;5048914;28;20225;-85
2022/05/01 03:15:08;;;;;;;4.27;2.53;;;;;;;13.37;67.34;99433.44;5048977;28;20196;-85
2022/05/01 03:23:03;;;;;;;5.23;1.90;;;;;;;13.29;67.05;99442.72;5050666;28;20173;-85
2022/05/01 03:25:29;;;;;;;3.17;1.83;;;;;;;13.32;66.74;99451.31;5048829;28;20178;-86
2022/05/01 03:27:54;;;;;;;2.93;1.80;;;;;;;13.31;66.50;99446.13;5049999;28;20192;-85
2022/05/01 03:30:21;;;;;;;5.00;2.10;;;;;;;13.22;66.90;99451.94;5048784;28;20662;-85
2022/05/01 03:32:48;;;;;;;4.47;2.30;;;;;;;13.20;66.14;99443.28;5049617;28;20558;-85
2022/05/01 03:35:14;;;;;;;4.40;1.90;;;;;;;13.19;66.47;99452.09;5049665;28;20196;-86
2022/05/01 03:37:41;;;;;;;3.77;1.87;;;;;;;13.20;66.30;99459.06;5048709;28;20178;-85
2022/05/01 03:40:08;;;;;;;4.80;2.50;;;;;;;13.15;66.51;99458.50;5048623;28;20268;-85
2022/05/01 03:42:34;;;;;;;5.33;2.70;;;;;;;13.15;66.74;99463.75;5048583;28;20173;-85
2022/05/01 03:44:59;;;;;;;4.77;2.33;;;;;;;13.21;66.39;99466.88;5049538;28;20174;-85
2022/05/01 03:47:24;;;;;;;4.93;2.13;;;;;;;13.22;66.16;99458.03;5048844;28;20191;-85
2022/05/01 03:49:50;;;;;;;4.83;2.20;;;;;;;13.24;66.48;99463.19;5048539;28;20237;-85
2022/05/01 03:52:15;;;;;;;5.50;2.20;;;;;;;13.17;66.97;99456.59;5048425;28;20579;-86
2022/05/01 03:54:41;;;;;;;4.23;2.03;;;;;;;13.20;66.73;99461.69;5049418;28;20197;-85
2022/05/01 03:57:08;;;;;;;3.20;2.17;;;;;;;13.15;66.95;99461.97;5048542;28;20180;-86
2022/05/01 03:59:34;;;;;;;4.40;2.30;;;;;;;13.16;66.89;99466.28;5049793;28;20170;-86
2022/05/01 04:01:59;;;;;;;3.43;2.00;;;;;;;13.18;67.01;99469.66;5051699;28;20189;-86
2022/05/01 04:04:25;;;;;;;4.93;2.50;;;;;;;13.18;67.75;99471.47;5052651;28;20180;-86
2022/05/01 04:06:50;;;;;;;4.50;2.13;;;;;;;13.22;67.62;99480.88;5052998;28;20535;-85
2022/05/01 04:09:16;;;;;;;6.07;2.60;;;;;;;13.26;67.90;99475.34;5052684;28;20615;-86
2022/05/01 04:11:41;;;;;;;7.90;3.20;;;;;;;13.36;67.86;99480.94;5052515;28;20200;-86
2022/05/01 04:14:07;;;;;;;5.90;2.70;;;;;;;13.39;67.68;99478.97;5051934;28;20192;-86
2022/05/01 04:16:32;;;;;;;4.93;2.27;;;;;;;13.50;67.82;99484.44;5051597;28;20180;-86
2022/05/01 04:18:58;;;;;;;3.83;2.10;;;;;;;13.60;68.51;99482.09;5051869;28;20178;-85
2022/05/01 04:21:23;;;;;;;4.80;2.57;;;;;;;13.72;68.13;99489.31;5051856;28;20178;-85
2022/05/01 04:23:49;;;;;;;8.30;3.20;;;;;;;13.79;67.83;99485.34;5052457;28;20615;-85
2022/05/01 04:26:15;;;;;;;9.43;2.30;;;;;;;13.94;67.20;99478.31;5052414;28;20178;-86
2022/05/01 04:29:36;;;;;;;5.00;2.07;;;;;;;14.11;66.35;99484.25;5051427;28;20611;-86
2022/05/01 04:31:27;;;;;;;3.33;2.07;;;;;;;14.20;66.34;99484.63;5052099;27;20241;-86
2022/05/01 04:33:53;;;;;;;5.27;2.50;;;;;;;14.30;65.66;99480.47;5052276;28;20269;-86
2022/05/01 04:36:19;;;;;;;7.03;2.30;;;;;;;14.43;65.57;99476.16;5052544;28;20183;-86
2022/05/01 04:38:44;;;;;;;4.57;2.63;;;;;;;14.51;65.46;99466.84;5052224;28;20536;-86
2022/05/01 04:41:10;;;;;;;4.13;2.20;;;;;;;14.59;65.23;99469.84;5052724;28;20177;-85
2022/05/01 04:43:36;;;;;;;3.30;2.30;;;;;;;14.74;65.61;99471.47;5052400;28;20166;-85
2022/05/01 04:46:02;;;;;;;4.50;2.23;;;;;;;14.97;65.44;99474.41;5052062;28;20234;-85
2022/05/01 04:48:28;;;;;;;3.20;1.80;;;;;;;15.12;65.80;99466.34;5052346;28;20234;-85
2022/05/01 04:50:54;;;;;;;3.57;2.10;;;;;;;15.30;65.67;99465.13;5052298;28;20175;-85
2022/05/01 04:53:21;;;;;;;3.60;2.27;;;;;;;15.47;65.55;99463.19;5051932;28;20271;-85
2022/05/01 04:55:49;;;;;;;6.10;2.57;;;;;;;15.70;64.92;99462.47;5046602;28;20257;-85
2022/05/01 04:58:15;;;;;;;7.63;3.00;;;;;;;15.91;64.57;99468.94;5037628;28;20544;-85
2022/05/01 05:00:42;;;;;;;5.47;3.50;;;;;;;16.22;63.94;99463.19;5047552;28;20550;-85
2022/05/01 05:03:07;;;;;;;6.00;3.40;;;;;;;16.67;62.65;99467.03;5051968;28;20685;-86
2022/05/01 05:05:37;;;;;;;4.73;2.97;;;;;;;17.27;61.10;99455.56;5052066;28;20192;-86
2022/05/01 05:10:48;;;;;;;4.30;2.17;;;;;;;18.13;58.18;99451.56;5051375;28;20211;-85
2022/05/01 05:13:15;;;;;;;3.57;1.53;;;;;;;18.30;56.72;99446.59;5052164;28;20196;-85
2022/05/01 05:15:41;;;;;;;2.70;1.67;;;;;;;18.30;56.25;99456.38;5050703;28;20184;-85
2022/05/01 05:18:06;;;;;;;3.57;1.70;;;;;;;18.34;56.71;99457.84;5051888;28;20252;-85
2022/05/01 05:20:32;;;;;;;3.37;1.60;;;;;;;18.24;57.04;99470.13;5050070;28;20177;-85
2022/05/01 05:22:57;;;;;;;5.40;1.77;;;;;;;18.36;56.91;99469.16;5051236;28;20189;-83
2022/05/01 05:25:23;;;;;;;2.40;1.27;;;;;;;18.42;56.96;99471.34;5051525;28;20618;-83
2022/05/01 05:27:48;;;;;;;3.67;2.00;;;;;;;18.36;57.21;99466.50;5050128;28;20190;-86
2022/05/01 05:30:14;;;;;;;5.67;2.20;;;;;;;18.31;56.84;99468.69;5050738;28;20181;-86
2022/05/01 05:32:39;;;;;;;3.40;1.37;;;;;;;18.38;56.72;99478.69;5050628;28;20197;-86
2022/05/01 05:35:05;;;;;;;4.10;2.43;;;;;;;18.35;57.77;99478.09;5050696;28;20250;-86
2022/05/01 05:37:31;;;;;;;3.77;1.70;;;;;;;18.28;56.96;99477.75;5050339;27;20243;-88
2022/05/01 05:39:57;;;;;;;5.07;1.87;;;;;;;18.23;57.26;99476.41;5050280;28;20174;-87
2022/05/01 05:42:23;;;;;;;3.90;1.83;;;;;;;18.16;57.17;99473.38;5050537;28;20548;-87
2022/05/01 05:44:48;;;;;;;3.50;1.80;;;;;;;18.12;56.79;99471.09;5050752;28;20643;-88
2022/05/01 05:47:13;;;;;;;4.67;2.90;;;;;;;18.09;57.07;99471.31;5049715;28;20177;-87
2022/05/01 05:49:39;;;;;;;4.67;2.20;;;;;;;18.01;57.40;99468.41;5050673;28;20553;-88
2022/05/01 05:52:05;;;;;;;4.07;2.50;;;;;;;17.89;57.84;99472.03;5051573;28;20265;-88
2022/05/01 05:54:30;;;;;;;7.10;2.47;;;;;;;17.76;58.57;99475.63;5051288;28;20174;-88
2022/05/01 05:56:56;;;;;;;3.60;2.10;;;;;;;17.61;58.25;99487.38;5050320;28;20200;-88
2022/05/01 05:59:21;;;;;;;4.70;2.30;;;;;;;17.49;58.52;99480.34;5050028;28;20620;-87
2022/05/01 06:01:47;;;;;;;4.97;2.43;;;;;;;17.52;59.27;99492.50;5050960;28;20185;-87
2022/05/01 06:04:12;;;;;;;6.87;3.50;;;;;;;17.55;58.72;99485.22;5050546;28;20177;-87
2022/05/01 06:06:38;;;;;;;5.90;2.07;;;;;;;17.53;58.72;99486.28;5051131;28;20205;-87
2022/05/01 06:09:03;;;;;;;6.20;2.90;;;;;;;17.78;59.31;99494.91;5044561;27;20524;-88
2022/05/01 06:11:29;;;;;;;9.23;2.47;;;;;;;17.83;58.90;99493.72;5031584;28;20232;-88
2022/05/01 06:13:55;;;;;;;4.10;2.03;;;;;;;17.82;58.76;99489.38;5030227;28;20190;-87
2022/05/01 06:16:20;;;;;;;5.53;2.50;;;;;;;17.98;58.37;99484.56;5031093;28;20177;-88
2022/05/01 06:18:47;;;;;;;4.73;2.87;;;;;;;18.25;57.54;99495.69;5035358;28;20174;-88
2022/05/01 06:21:13;;;;;;;4.77;2.30;;;;;;;18.51;56.98;99493.66;5032677;28;20533;-89
2022/05/01 06:23:39;;;;;;;4.37;1.90;;;;;;;18.80;55.97;99502.81;5042081;28;20252;-87
2022/05/01 06:26:07;;;;;;;5.43;2.80;;;;;;;19.32;55.39;99496.75;5046476;28;20268;-87
2022/05/01 06:28:33;;;;;;;5.00;1.80;;;;;;;19.75;54.15;99489.56;5049540;28;20258;-87
2022/05/01 06:31:02;;;;;;;3.40;1.87;;;;;;;20.07;50.50;99500.97;5050506;28;20195;-88
2022/05/01 06:33:29;;;;;;;2.70;1.40;;;;;;;20.47;50.67;99500.22;5050629;28;20191;-88
2022/05/01 06:35:54;;;;;;;4.97;2.57;;;;;;;20.57;51.00;99496.59;5050701;28;20263;-87
2022/05/01 06:38:21;;;;;;;2.67;1.30;;;;;;;20.89;47.50;99491.09;5049431;28;20201;-88
2022/05/01 06:40:47;;;;;;;2.97;1.10;;;;;;;20.91;45.21;99502.44;5049415;28;20178;-88
2022/05/01 06:43:14;;;;;;;2.97;1.63;;;;;;;21.19;46.25;99500.88;5049327;27;20667;-89
2022/05/01 06:45:41;;;;;;;3.10;1.53;;;;;;;21.37;47.52;99500.03;5049587;28;20181;-87
2022/05/01 06:48:08;;;;;;;3.70;1.70;;;;;;;21.76;45.29;99505.34;5044134;28;20186;-89
2022/05/01 06:50:34;;;;;;;6.13;1.97;;;;;;;21.72;44.29;99495.97;5032806;28;20197;-89
2022/05/01 06:52:59;;;;;;;4.63;2.10;;;;;;;21.56;44.46;99488.53;5050426;28;20189;-87
2022/05/01 06:55:25;;;;;;;3.50;1.47;;;;;;;21.52;45.47;99497.78;5050107;28;20287;-87
2022/05/01 06:57:54;;;;;;;4.33;1.23;;;;;;;21.67;44.75;99501.69;5050442;28;20244;-87
2022/05/01 07:00:20;;;;;;;2.57;1.17;;;;;;;21.42;43.61;99500.47;5050027;28;20178;-88
2022/05/01 07:02:47;;;;;;;3.17;1.47;;;;;;;21.35;43.91;99504.69;5049125;28;20612;-88
2022/05/01 07:05:15;;;;;;;2.83;1.70;;;;;;;21.54;45.05;99497.66;5047265;28;20186;-87
2022/05/01 07:07:41;;;;;;;5.03;1.63;;;;;;;21.57;43.12;99500.03;5049062;28;20177;-87
2022/05/01 07:10:08;;;;;;;1.83;1.03;;;;;;;21.70;42.45;99501.41;5050281;28;20184;-88
2022/05/01 07:12:33;;;;;;;4.27;1.90;;;;;;;21.87;43.10;99510.56;5048902;28;20196;-88
2022/05/01 07:15:00;;;;;;;2.03;1.00;;;;;;;21.59;43.80;99504.25;5049224;28;20181;-88
2022/05/01 07:17:25;;;;;;;2.80;1.27;;;;;;;21.65;43.66;99500.16;5050409;28;20174;-86
2022/05/01 07:19:51;;;;;;;2.10;1.03;;;;;;;21.79;44.59;99499.75;5048231;28;20196;-87
2022/05/01 07:22:17;;;;;;;2.40;1.07;;;;;;;21.99;45.99;99501.41;5048862;28;20257;-87
2022/05/01 07:24:42;;;;;;;4.43;1.23;;;;;;;22.12;43.66;99499.28;5050320;28;20166;-88
2022/05/01 07:27:08;;;;;;;7.80;1.70;;;;;;;22.01;42.25;99500.28;5048803;28;20178;-87
2022/05/01 07:29:34;;;;;;;4.63;1.80;;;;;;;22.02;42.16;99507.31;5049081;28;20616;-87
2022/05/01 07:31:59;;;;;;;2.20;1.27;;;;;;;22.16;42.37;99508.69;5049649;28;20201;-87
2022/05/01 07:34:25;;;;;;;1.90;0.87;;;;;;;22.23;42.63;99504.44;5049878;28;20188;-88
2022/05/01 07:36:50;;;;;;;6.53;1.63;;;;;;;22.46;43.42;99510.25;5052816;28;20553;-87
2022/05/01 07:39:16;;;;;;;3.63;2.00;;;;;;;22.73;40.77;99515.69;5053143;28;20515;-86
2022/05/01 07:41:41;;;;;;;3.50;1.40;;;;;;;22.69;40.97;99511.63;5053672;28;20162;-87
2022/05/01 07:44:08;;;;;;;3.27;1.53;;;;;;;22.79;40.88;99506.22;5053088;28;20178;-87
2022/05/01 07:46:35;;;;;;;3.53;1.77;;;;;;;22.84;40.81;99507.47;5051774;28;20182;-87
2022/05/01 07:49:00;;;;;;;2.13;1.13;;;;;;;22.91;40.84;99513.88;5052011;28;20272;-87
2022/05/01 07:51:26;;;;;;;3.17;1.27;;;;;;;22.81;41.09;99509.59;5051969;28;20243;-88
2022/05/01 07:53:53;;;;;;;3.80;1.10;;;;;;;22.99;39.93;99508.63;5052257;28;20178;-87
2022/05/01 07:56:19;;;;;;;1.80;0.90;;;;;;;23.07;37.76;99516.75;5052244;27;20255;-87
2022/05/01 07:58:45;;;;;;;2.23;0.83;;;;;;;23.18;37.38;99513.03;5053129;28;20655;-88
2022/05/01 08:01:10;;;;;;;5.10;1.33;;;;;;;23.10;37.87;99515.59;5052010;28;20185;-87
2022/05/01 08:06:22;;;;;;;3.00;1.33;;;;;;;23.07;36.60;99511.41;5053307;28;20286;-88
2022/05/01 08:08:47;;;;;;;2.77;1.40;;;;;;;22.74;35.96;99514.69;5051681;28;20270;-90
2022/05/01 08:11:13;;;;;;;2.90;1.10;;;;;;;22.41;37.94;99516.06;5050276;28;20631;-90
2022/05/01 08:13:39;;;;;;;3.63;1.50;;;;;;;22.28;40.46;99510.19;5048749;28;20190;-89
2022/05/01 08:16:04;;;;;;;1.97;1.00;;;;;;;22.62;38.86;99508.69;5045509;28;20189;-88
2022/05/01 08:21:14;;;;;;;4.37;1.40;;;;;;;22.66;38.48;99511.91;5052980;28;20545;-88
2022/05/01 08:23:41;;;;;;;2.70;1.20;;;;;;;22.72;38.01;99515.84;5052416;28;20249;-87
2022/05/01 08:26:10;;;;;;;2.90;1.20;;;;;;;22.79;38.64;99516.91;5052141;28;20635;-87
2022/05/01 08:28:37;;;;;;;2.77;1.07;;;;;;;22.91;37.87;99521.06;5051268;28;20573;-88
2022/05/01 08:31:04;;;;;;;2.60;1.30;;;;;;;23.08;37.54;99523.78;5052280;28;20182;-88
2022/05/01 08:33:29;;;;;;;2.17;1.17;;;;;;;23.48;38.03;99509.19;5052167;28;20186;-87
2022/05/01 08:35:55;;;;;;;2.00;1.30;;;;;;;23.40;35.91;99509.09;5051255;28;20200;-90
2022/05/01 08:38:21;;;;;;;1.83;1.03;;;;;;;23.53;36.16;99502.34;5049706;28;20194;-88
2022/05/01 08:40:49;;;;;;;1.83;1.00;;;;;;;23.84;36.79;99502.78;5050765;28;20185;-87
2022/05/01 08:43:15;;;;;;;2.80;1.17;;;;;;;23.61;35.82;99501.59;5051115;28;20166;-86
2022/05/01 08:45:48;;;;;;;2.37;1.03;;;;;;;23.84;36.07;99500.13;5050218;28;20185;-86
2022/05/01 08:48:18;;;;;;;1.93;1.03;;;;;;;24.35;37.78;99494.78;5052428;28;20163;-86
2022/05/01 08:50:45;;;;;;;3.20;1.43;;;;;;;24.72;34.70;99491.78;5051164;28;20174;-86
2022/05/01 08:53:12;;;;;;;4.27;1.43;;;;;;;24.15;35.33;99489.81;5050980;28;20253;-90
2022/05/01 08:55:39;;;;;;;2.90;1.20;;;;;;;23.68;36.31;99492.81;5051934;28;20231;-87
2022/05/01 08:58:05;;;;;;;2.10;1.10;;;;;;;23.40;35.86;99495.72;5050816;28;20181;-86
2022/05/01 09:00:31;;;;;;;2.87;1.50;;;;;;;23.31;36.65;99494.75;5049092;28;20181;-87
2022/05/01 09:02:56;;;;;;;2.23;1.10;;;;;;;23.15;35.76;99497.28;5049646;28;20188;-90
2022/05/01 09:05:22;;;;;;;4.00;1.40;;;;;;;22.95;37.05;99485.03;5049187;28;20185;-87
2022/05/01 09:07:47;;;;;;;4.13;2.37;;;;;;;22.85;37.07;99486.94;5048701;27;20166;-86
2022/05/01 09:10:14;;;;;;;6.23;1.20;;;;;;;23.00;38.53;99477.41;5038092;28;20198;-85
2022/05/01 09:12:50;;;;;;;2.53;1.40;;;;;;;23.22;37.20;99482.28;5029204;28;20361;-86
2022/05/01 09:15:32;;;;;;;3.90;1.60;;;;;;;23.37;36.60;99477.28;5030290;28;20166;-85
2022/05/01 09:18:06;;;;;;;2.53;1.20;;;;;;;23.82;37.34;99476.16;5030517;28;20179;-86
2022/05/01 09:20:32;;;;;;;2.60;1.53;;;;;;;24.11;35.03;99461.69;5031693;28;20696;-86
2022/05/01 09:22:59;;;;;;;7.33;2.07;;;;;;;24.15;33.82;99455.00;5030712;28;20205;-85
2022/05/01 09:25:27;;;;;;;2.97;1.30;;;;;;;24.40;34.73;99456.78;5031525;28;20182;-87
2022/05/01 09:27:57;;;;;;;2.60;1.83;;;;;;;24.20;34.70;99450.00;5029528;28;20179;-86
2022/05/01 09:30:33;;;;;;;3.73;1.37;;;;;;;24.44;34.68;99445.59;5028782;28;20242;-87
2022/05/01 09:32:59;;;;;;;9.37;1.80;;;;;;;24.43;34.74;99433.19;5028379;28;20198;-86
2022/05/01 09:35:31;;;;;;;2.83;1.77;;;;;;;24.05;33.88;99439.00;5029415;28;20247;-84
2022/05/01 09:38:22;;;;;;;3.23;1.83;;;;;;;23.97;37.29;99441.63;5029666;28;20167;-85
2022/05/01 09:41:00;;;;;;;2.03;1.37;;;;;;;24.18;35.45;99438.59;5028295;28;20586;-85
2022/05/01 09:43:34;;;;;;;3.10;1.20;;;;;;;24.41;36.33;99434.34;5031641;28;20147;-86
2022/05/01 09:46:20;;;;;;;1.93;1.00;;;;;;;24.52;33.26;99434.06;5030614;28;20181;-85
2022/05/01 09:49:03;;;;;;;2.60;1.17;;;;;;;24.83;33.33;99426.31;5031610;28;20182;-85
2022/05/01 09:51:31;;;;;;;7.67;1.07;;;;;;;24.77;34.02;99427.78;5031081;28;20197;-86
2022/05/01 09:53:59;;;;;;;2.40;1.10;;;;;;;24.74;34.08;99422.75;5031680;28;20175;-86
2022/05/01 09:56:25;;;;;;;2.17;1.00;;;;;;;24.78;34.02;99420.59;5030883;28;20163;-86
2022/05/01 09:58:59;;;;;;;2.20;1.10;;;;;;;25.03;34.37;99416.97;5030865;28;20688;-87
2022/05/01 10:01:25;;;;;;;2.20;1.10;;;;;;;25.26;33.43;99409.13;5030206;28;20251;-87
2022/05/01 10:03:52;;;;;;;2.60;1.10;;;;;;;25.38;32.93;99407.78;5030138;28;20176;-86
2022/05/01 10:06:19;;;;;;;2.57;1.10;;;;;;;25.51;34.42;99400.94;5031283;28;20175;-86
2022/05/01 10:08:45;;;;;;;1.70;1.07;;;;;;;25.41;33.18;99396.72;5030920;28;20170;-87
2022/05/01 10:11:16;;;;;;;3.40;1.10;;;;;;;25.58;32.73;99393.03;5030277;28;20178;-88
2022/05/01 10:13:46;;;;;;;2.53;1.00;;;;;;;25.68;34.43;99393.72;5030822;28;20633;-87
2022/05/01 10:16:15;;;;;;;1.87;1.07;;;;;;;25.43;32.97;99387.47;5031144;28;20179;-87
2022/05/01 10:18:43;;;;;;;1.53;1.00;;;;;;;25.64;32.82;99389.66;5030817;28;20198;-85
2022/05/01 10:21:08;;;;;;;2.93;1.20;;;;;;;25.83;33.19;99385.78;5030775;28;20166;-84
2022/05/01 10:23:35;;;;;;;3.03;0.90;;;;;;;25.52;31.88;99381.13;5030726;28;20640;-85
2022/05/01 10:26:09;;;;;;;2.30;1.07;;;;;;;25.33;33.15;99373.41;5030598;28;20174;-85
2022/05/01 10:29:04;;;;;;;2.73;1.50;;;;;;;25.18;33.12;99375.09;5043808;28;20652;-86
2022/05/01 10:35:03;;;;;;;2.10;0.93;;;;;;;25.12;31.94;99365.03;5044746;28;20192;-88
2022/05/01 10:37:31;;;;;;;3.20;1.20;;;;;;;25.45;33.11;99358.63;5050448;28;20158;-86
2022/05/01 10:39:58;;;;;;;1.10;0.70;;;;;;;25.50;31.89;99358.13;5050319;28;20173;-86
2022/05/01 10:42:42;;;;;;;2.20;1.10;;;;;;;25.46;30.95;99356.81;5050612;28;20176;-87
2022/05/01 10:45:28;;;;;;;2.00;1.10;;;;;;;25.57;31.44;99354.63;5050552;28;20165;-88
2022/05/01 10:47:57;;;;;;;1.77;0.80;;;;;;;25.07;32.48;99351.28;5053540;27;20663;-87
2022/05/01 10:50:27;;;;;;;3.77;1.40;;;;;;;25.18;32.77;99337.53;5048213;28;20633;-88
2022/05/01 10:53:05;;;;;;;1.63;0.63;;;;;;;25.50;32.81;99337.50;5049145;28;20182;-88
2022/05/01 10:55:42;;;;;;;3.30;1.10;;;;;;;25.53;32.16;99333.63;5048118;28;20201;-86
2022/05/01 10:58:30;;;;;;;1.00;0.63;;;;;;;25.53;33.58;99331.78;5050346;28;20184;-86
2022/05/01 11:00:56;;;;;;;1.13;0.60;;;;;;;25.10;31.81;99321.44;5049151;28;20257;-88
2022/05/01 11:03:32;;;;;;;2.63;1.13;;;;;;;25.26;32.92;99331.31;5050023;28;20268;-87
2022/05/01 11:06:01;;;;;;;1.67;1.07;;;;;;;25.08;32.12;99328.78;5046562;28;20691;-87
2022/05/01 11:08:29;;;;;;;2.37;1.20;;;;;;;25.15;33.37;99332.50;5049571;28;20207;-86
2022/05/01 11:10:59;;;;;;;4.00;1.37;;;;;;;25.20;32.93;99329.28;5050180;28;20190;-87
2022/05/01 11:13:31;;;;;;;1.30;0.87;;;;;;;25.24;30.27;99318.03;5052514;28;20216;-85
2022/05/01 11:15:57;;;;;;;2.13;1.10;;;;;;;25.26;31.03;99317.91;5053790;28;20257;-88
2022/05/01 11:18:30;;;;;;;3.23;0.90;;;;;;;25.83;31.00;99314.09;5053787;28;20632;-86
2022/05/01 11:21:21;;;;;;;2.43;1.10;;;;;;;25.38;32.32;99321.91;5053960;28;20174;-85
2022/05/01 11:23:56;;;;;;;1.45;0.80;;;;;;;25.45;31.52;99322.88;5052425;27;20201;-84
2022/05/01 11:26:22;;;;;;;4.22;1.40;;;;;;;25.82;31.71;99319.63;5053002;28;20531;-85
2022/05/01 11:28:48;;;;;;;2.08;0.82;;;;;;;26.06;31.62;99306.97;5053004;28;20262;-87
2022/05/01 11:31:36;;;;;;;1.88;1.02;;;;;;;25.88;29.95;99305.53;5052367;28;20181;-87
2022/05/01 11:34:17;;;;;;;2.60;1.05;;;;;;;25.60;29.86;99297.06;5051998;28;20209;-87
2022/05/01 11:37:05;;;;;;;3.23;1.00;;;;;;;25.40;31.54;99304.63;5052183;28;20196;-85
2022/05/01 11:39:46;;;;;;;2.17;1.20;;;;;;;25.54;31.38;99289.69;5053493;28;20173;-86
2022/05/01 11:42:27;;;;;;;2.90;1.15;;;;;;;26.04;29.58;99295.56;5052173;28;20180;-84
2022/05/01 11:44:58;;;;;;;2.20;1.05;;;;;;;26.17;30.00;99295.88;5053630;28;20170;-87
2022/05/01 11:47:30;;;;;;;2.28;1.20;;;;;;;26.27;30.40;99286.72;5051704;28;20178;-85
2022/05/01 11:49:56;;;;;;;2.47;1.05;;;;;;;26.54;31.02;99278.16;5053334;28;20601;-85
2022/05/01 11:52:22;;;;;;;2.15;1.13;;;;;;;26.74;30.42;99279.34;5051957;28;20200;-86
2022/05/01 11:54:51;;;;;;;3.35;0.73;;;;;;;26.18;30.33;99289.47;5053208;28;20182;-84
2022/05/01 12:02:58;;;;;;;1.38;0.77;;;;;;;25.42;31.19;99273.06;5052984;28;20200;-86
2022/05/01 12:05:25;;;;;;;1.33;0.70;;;;;;;25.57;31.53;99260.66;5051820;28;20185;-85
2022/05/01 12:07:55;;;;;;;2.97;1.10;;;;;;;25.93;32.07;99262.84;5051780;28;20245;-86
2022/05/01 12:10:21;;;;;;;2.45;1.30;;;;;;;26.33;32.53;99256.47;5052023;28;20209;-85